Ana Sayfa
METAR-TAF:

METAR-TAF

Havaalanları :

Waco, Teksas, Amerika Birleşik Devletleri

Enlem: 31-37-02N, Boylam: 097-13-40W, yükseklik: 157 m

Güncel hava durumu gözlemi

Rapor saat 02:51 UTC de 10 dakika önce yapıldı.
Rüzgar güneybatıdan 6 kt
Sıcaklık 9°C
Nem 71%
Basınç 1014 hPa
Görüş mesafesi: 16.1 km
Açık gökyüzü

METAR: KACT 190251Z 22006KT 10SM CLR 09/04 A2993 RMK AO2 SLP132 T00940044 53010 $

Saat: 21:01 (03:01 UTC)

Tahmin

Rapor saat 23:25 UTC de 3 saat ve 36 dakika önce yapıldı.
Ayın 19'si saat 00 UTC'den ayın 19'si saat 24 UTC'ye kadar geçerli Tahmin
Rüzgar güney/güneybatıdan 6 kt
Görüş mesafesi: 10 km
Açık gökyüzü

TAF: KACT 182325Z 1900/1924 20006KT P6SM SKC

4.000'den fazla havaalanı için hava durumu gözlemleri ve tahminleri (METAR ve TAF raporları).

Kullanılabilir istasyonlar harita üzerinde sarı ve kırmızı noktalarla gösterilir.

İstasyonun adını görmek için fareyi noktanın üzerinde gezdirin.

Sonrasında hava gözlem ve tahminlerini görmek için tıklayın.

Haritayı değiştirmek için: yaklaştırmak için siyah artı işaretli yeşil düğmeye ve uzaklaştırmak için de eksi işaretli düğmeye hızla tıklayın; bitişik haritalar için yeşil okları kullanın.


METAR-TAF: